Time;durP1;ratioP1;P1;durP2;ratioP2;P2;SDS_P1;SDS_P2;PMS_P1;PMS_P2;Temp;Humidity;BMP_temperature;BMP_pressure;BME280_temperature;BME280_humidity;BME280_pressure;Samples;Min_cycle;Max_cycle;Signal;HPM_P1;HPM_P2
2021/07/30 00:01:56;;;;;;;;;7.00;7.00;;;;;20.79;100.00;100846.97;5107067;27;45380;-66
2021/07/30 00:04:22;;;;;;;;;9.25;9.00;;;;;20.75;100.00;100848.06;5110407;27;45268;-67
2021/07/30 00:06:47;;;;;;;;;10.00;8.75;;;;;20.69;100.00;100835.16;5118969;27;45503;-67
2021/07/30 00:09:13;;;;;;;;;12.00;9.75;;;;;20.66;100.00;100836.19;5105066;27;46665;-67
2021/07/30 00:11:39;;;;;;;;;9.00;8.25;;;;;20.64;100.00;100832.75;5119072;27;45454;-66
2021/07/30 00:14:05;;;;;;;;;8.00;6.00;;;;;20.68;100.00;100841.41;5119300;27;45345;-68
2021/07/30 00:16:31;;;;;;;;;9.50;7.00;;;;;20.67;100.00;100842.34;5119369;27;45472;-68
2021/07/30 00:18:56;;;;;;;;;8.00;7.50;;;;;20.62;100.00;100837.28;5117909;27;46191;-67
2021/07/30 00:21:22;;;;;;;;;9.00;8.25;;;;;20.62;100.00;100839.94;5117170;27;45442;-67
2021/07/30 00:23:47;;;;;;;;;8.00;8.00;;;;;20.56;100.00;100837.59;5106660;27;45347;-67
2021/07/30 00:26:12;;;;;;;;;7.25;7.00;;;;;20.59;100.00;100839.22;5104841;27;45705;-67
2021/07/30 00:28:38;;;;;;;;;7.50;7.50;;;;;20.56;100.00;100832.28;5113426;27;45848;-67
2021/07/30 00:31:03;;;;;;;;;10.75;9.00;;;;;20.54;100.00;100839.47;5106467;27;45415;-67
2021/07/30 00:33:29;;;;;;;;;9.00;9.00;;;;;20.58;100.00;100834.84;5098448;27;45581;-67
2021/07/30 00:35:55;;;;;;;;;6.00;6.00;;;;;20.52;100.00;100827.25;5085449;27;45506;-68
2021/07/30 00:38:26;;;;;;;;;6.75;5.75;;;;;20.53;100.00;100824.50;5098052;27;45477;-67
2021/07/30 00:40:51;;;;;;;;;7.75;7.25;;;;;20.46;100.00;100813.38;5099021;27;45277;-67
2021/07/30 00:43:17;;;;;;;;;8.00;7.00;;;;;20.53;100.00;100826.31;5099388;27;45429;-67
2021/07/30 00:45:42;;;;;;;;;8.75;6.00;;;;;20.51;100.00;100815.78;5098175;27;45380;-68
2021/07/30 00:48:08;;;;;;;;;5.00;5.00;;;;;20.53;100.00;100826.31;5105117;27;46070;-67
2021/07/30 00:50:34;;;;;;;;;6.50;6.00;;;;;20.49;100.00;100813.22;5103676;27;45759;-67
2021/07/30 00:53:00;;;;;;;;;6.00;6.00;;;;;20.46;100.00;100810.72;5100009;27;45498;-69
2021/07/30 00:55:26;;;;;;;;;7.00;7.00;;;;;20.48;100.00;100815.94;5104524;27;45384;-67
2021/07/30 00:57:55;;;;;;;;;6.50;5.75;;;;;20.48;100.00;100818.59;5108339;27;46186;-67
2021/07/30 01:00:21;;;;;;;;;7.75;6.50;;;;;20.42;100.00;100811.84;5098165;27;45370;-66
2021/07/30 01:02:49;;;;;;;;;7.00;5.00;;;;;20.48;100.00;100810.63;5110477;27;45412;-68
2021/07/30 01:05:15;;;;;;;;;5.75;5.00;;;;;20.43;100.00;100802.09;5098705;27;45453;-66
2021/07/30 01:07:41;;;;;;;;;5.00;5.00;;;;;20.41;100.00;100799.53;5097695;27;45525;-68
2021/07/30 01:10:07;;;;;;;;;5.00;5.00;;;;;20.46;100.00;100805.44;5098772;27;45471;-68
2021/07/30 01:12:32;;;;;;;;;6.00;6.00;;;;;20.41;100.00;100802.16;5097253;27;46215;-67
2021/07/30 01:14:58;;;;;;;;;4.50;4.25;;;;;20.47;100.00;100815.09;5102824;27;45331;-67
2021/07/30 01:17:27;;;;;;;;;5.50;5.00;;;;;20.45;100.00;100806.38;5097771;27;45633;-67
2021/07/30 01:19:53;;;;;;;;;6.25;6.00;;;;;20.42;100.00;100798.56;5101543;27;45419;-67
2021/07/30 01:22:34;;;;;;;;;5.25;5.00;;;;;20.44;100.00;100802.00;5098079;27;45307;-68
2021/07/30 01:25:00;;;;;;;;;4.25;4.25;;;;;20.40;100.00;100797.81;5106126;27;45504;-67
2021/07/30 01:27:25;;;;;;;;;5.00;5.00;;;;;20.43;100.00;100799.44;5107847;27;47307;-67
2021/07/30 01:29:51;;;;;;;;;4.00;4.00;;;;;20.35;100.00;100786.53;5106973;27;45492;-67
2021/07/30 01:32:17;;;;;;;;;4.50;4.50;;;;;20.37;100.00;100797.94;5117269;27;45429;-68
2021/07/30 01:34:43;;;;;;;;;4.00;4.00;;;;;20.37;100.00;100797.94;5104088;27;45476;-68
2021/07/30 01:37:12;;;;;;;;;5.50;5.50;;;;;20.36;100.00;100788.25;5113705;27;46458;-68
2021/07/30 01:39:38;;;;;;;;;6.00;5.00;;;;;20.29;100.00;100767.47;5097700;27;45572;-66
2021/07/30 01:42:05;;;;;;;;;5.00;5.00;;;;;20.35;100.00;100794.50;5101212;27;45386;-67
2021/07/30 01:44:30;;;;;;;;;6.50;5.00;;;;;20.30;100.00;100779.78;5084253;27;45460;-68
2021/07/30 01:46:56;;;;;;;;;4.75;4.25;;;;;20.30;100.00;100777.97;5116885;27;45692;-68
2021/07/30 01:49:21;;;;;;;;;4.75;4.75;;;;;20.31;100.00;100782.34;5113018;27;45478;-67
2021/07/30 01:51:47;;;;;;;;;4.00;4.00;;;;;20.28;100.00;100776.34;5107307;27;45447;-68
2021/07/30 01:54:14;;;;;;;;;4.00;4.00;;;;;20.33;100.00;100783.09;5117583;27;45476;-66
2021/07/30 01:56:40;;;;;;;;;4.00;4.00;;;;;20.33;100.00;100780.47;5116359;27;46627;-65
2021/07/30 01:59:06;;;;;;;;;6.00;5.00;;;;;20.32;100.00;100789.34;5109493;27;45578;-67
2021/07/30 02:01:31;;;;;;;;;4.00;4.00;;;;;20.25;100.00;100771.22;5117273;27;45430;-68
2021/07/30 02:03:59;;;;;;;;;8.00;5.00;;;;;20.30;100.00;100777.97;5118062;27;45398;-68
2021/07/30 02:06:24;;;;;;;;;5.00;4.75;;;;;20.29;100.00;100775.41;5114047;27;45547;-68
2021/07/30 02:08:50;;;;;;;;;2.75;2.75;;;;;20.15;100.00;100762.91;5110051;27;45253;-68
2021/07/30 02:11:15;;;;;;;;;6.50;5.00;;;;;20.20;100.00;100766.16;5114917;27;45464;-67
2021/07/30 02:16:25;;;;;;;;;4.00;3.75;;;;;20.22;100.00;100768.72;5099660;27;45762;-68
2021/07/30 02:18:51;;;;;;;;;5.00;5.00;;;;;20.19;100.00;100760.00;5106306;27;45538;-68
2021/07/30 02:21:17;;;;;;;;;5.25;4.00;;;;;20.22;100.00;100772.25;5098172;27;45366;-68
2021/07/30 02:23:44;;;;;;;;;7.50;5.00;;;;;20.18;100.00;100766.25;5116883;27;45471;-68
2021/07/30 02:26:09;;;;;;;;;4.75;4.00;;;;;20.15;100.00;100749.66;5120786;27;46245;-69
2021/07/30 02:28:35;;;;;;;;;6.00;5.75;;;;;20.22;100.00;100774.03;5106295;27;45293;-68
2021/07/30 02:31:00;;;;;;;;;5.00;4.25;;;;;20.06;100.00;100748.34;5120424;27;45441;-68
2021/07/30 02:33:26;;;;;;;;;4.00;4.00;;;;;20.18;100.00;100765.41;5110865;27;45481;-68
2021/07/30 02:35:57;;;;;;;;;6.00;4.50;;;;;20.18;100.00;100758.31;5105573;27;47169;-67
2021/07/30 02:38:22;;;;;;;;;6.00;5.00;;;;;20.02;100.00;100733.53;5108879;27;45486;-68
2021/07/30 02:40:47;;;;;;;;;5.00;4.75;;;;;20.17;100.00;100761.88;5116542;27;45497;-68
2021/07/30 02:43:13;;;;;;;;;4.50;4.25;;;;;20.17;100.00;100758.38;5110149;27;45351;-68
2021/07/30 02:45:38;;;;;;;;;3.00;3.00;;;;;20.18;100.00;100752.13;5119395;27;46234;-68
2021/07/30 02:48:04;;;;;;;;;5.25;5.00;;;;;20.22;100.00;100758.97;5106377;27;45341;-68
2021/07/30 02:50:29;;;;;;;;;5.00;4.25;;;;;20.21;100.00;100749.31;5120422;27;45355;-68
2021/07/30 02:52:55;;;;;;;;;5.25;5.25;;;;;20.19;100.00;100743.25;5107364;27;45342;-68
2021/07/30 02:55:20;;;;;;;;;4.75;4.75;;;;;20.24;100.00;100745.66;5113054;27;46382;-68
2021/07/30 02:57:45;;;;;;;;;5.75;4.00;;;;;20.22;100.00;100743.06;5111490;27;45295;-68
2021/07/30 03:00:12;;;;;;;;;5.50;5.50;;;;;20.24;100.00;100738.53;5112806;27;45293;-67
2021/07/30 03:02:37;;;;;;;;;4.75;4.00;;;;;20.25;100.00;100737.59;5115595;27;45343;-68
2021/07/30 03:05:03;;;;;;;;;5.00;4.25;;;;;20.26;100.00;100743.75;5119874;27;46446;-68
2021/07/30 03:07:28;;;;;;;;;6.00;4.00;;;;;20.23;100.00;100741.28;5113327;27;45469;-68
2021/07/30 03:09:54;;;;;;;;;6.00;5.00;;;;;20.22;100.00;100734.28;5113089;27;45490;-68
2021/07/30 03:12:20;;;;;;;;;7.00;5.00;;;;;20.26;100.00;100733.16;5115677;27;45300;-69
2021/07/30 03:14:45;;;;;;;;;5.50;5.50;;;;;20.29;100.00;100738.28;5110302;27;46290;-68
2021/07/30 03:17:10;;;;;;;;;4.25;4.25;;;;;20.32;100.00;100743.41;5119536;27;45370;-67
2021/07/30 03:19:36;;;;;;;;;4.50;4.50;;;;;20.28;100.00;100739.22;5119784;27;45509;-68
2021/07/30 03:22:01;;;;;;;;;4.50;4.50;;;;;20.29;100.00;100748.91;5106058;27;45396;-66
2021/07/30 03:24:26;;;;;;;;;5.50;5.50;;;;;20.31;100.00;100747.88;5119489;27;45731;-66
2021/07/30 03:26:52;;;;;;;;;6.75;6.00;;;;;20.29;100.00;100743.59;5119574;27;45431;-66
2021/07/30 03:29:17;;;;;;;;;3.00;2.00;;;;;20.10;100.00;100717.22;5115433;27;45452;-66
2021/07/30 03:31:47;;;;;;;;;7.25;5.00;;;;;20.18;100.00;100731.78;5099554;27;45343;-67
2021/07/30 03:34:13;;;;;;;;;7.00;5.00;;;;;20.19;100.00;100737.94;5102409;27;46518;-67
2021/07/30 03:36:39;;;;;;;;;5.25;5.25;;;;;20.15;100.00;100731.09;5100179;27;45662;-67
2021/07/30 03:39:04;;;;;;;;;6.00;6.00;;;;;20.15;100.00;100739.06;5105610;27;45758;-67
2021/07/30 03:41:30;;;;;;;;;4.00;3.50;;;;;20.13;100.00;100727.66;5099327;27;45430;-67
2021/07/30 03:43:55;;;;;;;;;6.25;5.50;;;;;20.13;100.00;100732.94;5076842;27;46445;-68
2021/07/30 03:46:20;;;;;;;;;6.25;6.00;;;;;20.11;100.00;100738.34;5084144;27;45422;-67
2021/07/30 03:48:46;;;;;;;;;6.00;5.00;;;;;19.96;100.00;100711.81;5107959;27;45469;-68
2021/07/30 03:51:11;;;;;;;;;5.25;5.00;;;;;20.00;100.00;100729.25;5099448;27;45432;-68
2021/07/30 03:53:36;;;;;;;;;6.00;5.00;;;;;20.02;100.00;100745.94;5105464;27;47277;-69
2021/07/30 03:56:02;;;;;;;;;5.50;5.50;;;;;19.96;100.00;100736.53;5099241;27;45395;-68
2021/07/30 03:58:27;;;;;;;;;5.00;5.00;;;;;19.89;100.00;100727.16;5096603;27;45412;-68
2021/07/30 04:00:52;;;;;;;;;7.75;6.00;;;;;19.87;100.00;100726.41;5099420;27;45446;-68
2021/07/30 04:03:18;;;;;;;;;5.00;5.00;;;;;19.83;100.00;100728.34;5104908;27;45448;-67
2021/07/30 04:05:43;;;;;;;;;6.50;6.00;;;;;19.78;100.00;100724.25;5099147;27;45338;-67
2021/07/30 04:08:08;;;;;;;;;6.75;5.25;;;;;19.79;100.00;100734.75;5087917;27;45314;-68
2021/07/30 04:10:34;;;;;;;;;5.00;5.00;;;;;19.78;100.00;100732.19;5099999;27;45249;-68
2021/07/30 04:12:59;;;;;;;;;6.25;6.25;;;;;19.75;100.00;100732.34;5100446;27;47299;-68
2021/07/30 04:15:25;;;;;;;;;1.50;1.50;;;;;19.67;100.00;100730.09;5099643;27;45354;-67
2021/07/30 04:17:50;;;;;;;;;7.00;6.00;;;;;19.55;100.00;100706.91;5101411;27;45328;-68
2021/07/30 04:20:16;;;;;;;;;4.50;4.50;;;;;19.65;100.00;100728.47;5102063;27;45298;-69
2021/07/30 04:22:41;;;;;;;;;5.50;4.00;;;;;19.62;100.00;100728.63;5094663;27;45546;-68
2021/07/30 04:25:07;;;;;;;;;5.00;5.00;;;;;19.61;100.00;100738.38;5102562;27;45984;-66
2021/07/30 04:27:33;;;;;;;;;5.25;4.75;;;;;19.55;100.00;100721.00;5098905;27;45453;-68
2021/07/30 04:30:01;;;;;;;;;5.00;5.00;;;;;19.57;100.00;100728.88;5112454;27;45414;-68
2021/07/30 04:32:26;;;;;;;;;6.25;6.25;;;;;19.55;100.00;100731.59;5111824;27;46197;-66
2021/07/30 04:34:52;;;;;;;;;5.00;5.00;;;;;19.58;100.00;100730.56;5116223;27;45520;-68
2021/07/30 04:37:17;;;;;;;;;6.00;5.50;;;;;19.58;100.00;100730.56;5108506;27;46825;-68
2021/07/30 04:39:42;;;;;;;;;5.00;5.00;;;;;19.53;100.00;100728.19;5111055;27;45448;-68
2021/07/30 04:42:08;;;;;;;;;6.00;5.00;;;;;19.54;100.00;100731.69;5117977;27;46116;-69
2021/07/30 04:44:34;;;;;;;;;5.00;5.00;;;;;19.53;100.00;100727.28;5114416;27;45394;-69
2021/07/30 04:47:00;;;;;;;;;4.75;4.00;;;;;19.54;100.00;100731.69;5117324;27;45331;-68
2021/07/30 04:49:25;;;;;;;;;5.75;5.00;;;;;19.53;100.00;100737.88;5118161;27;45421;-68
2021/07/30 04:51:53;;;;;;;;;5.00;5.00;;;;;19.52;100.00;100733.53;5119007;27;46583;-68
2021/07/30 04:54:21;;;;;;;;;5.25;4.50;;;;;19.52;100.00;100722.94;5117592;27;45562;-68
2021/07/30 04:56:46;;;;;;;;;6.25;5.25;;;;;19.47;100.00;100720.53;5118484;27;45408;-68
2021/07/30 04:59:12;;;;;;;;;6.50;4.50;;;;;19.51;100.00;100724.72;5118985;27;45331;-69
2021/07/30 05:01:43;;;;;;;;;4.25;3.75;;;;;19.54;100.00;100729.88;5102072;27;46450;-68
2021/07/30 05:04:09;;;;;;;;;7.00;7.00;;;;;19.48;100.00;100729.31;5118541;27;45795;-68
2021/07/30 05:06:35;;;;;;;;;5.00;4.00;;;;;19.46;100.00;100724.09;5118452;27;45434;-68
2021/07/30 05:09:00;;;;;;;;;4.00;3.25;;;;;19.45;100.00;100722.38;5119123;27;45422;-68
2021/07/30 05:11:28;;;;;;;;;5.00;4.25;;;;;19.46;100.00;100723.22;5118446;27;45564;-67
2021/07/30 05:13:53;;;;;;;;;6.00;5.00;;;;;19.46;100.00;100721.47;5112117;27;45749;-69
2021/07/30 05:16:21;;;;;;;;;4.25;4.25;;;;;19.50;100.00;100732.75;5118384;27;45440;-68
2021/07/30 05:18:47;;;;;;;;;6.75;5.00;;;;;19.52;100.00;100730.88;5111735;27;45316;-67
2021/07/30 05:21:12;;;;;;;;;5.00;5.00;;;;;19.53;100.00;100724.63;5107632;27;46411;-69
2021/07/30 05:23:38;;;;;;;;;5.00;5.00;;;;;19.50;100.00;100724.81;5112089;27;45281;-68
2021/07/30 05:26:06;;;;;;;;;6.00;5.00;;;;;19.52;100.00;100731.72;5097990;27;45461;-68
2021/07/30 05:28:34;;;;;;;;;6.00;5.00;;;;;19.53;100.00;100730.81;5112226;27;45292;-67
2021/07/30 05:30:59;;;;;;;;;5.00;5.00;;;;;19.53;100.00;100735.22;5097425;27;45608;-68
2021/07/30 05:33:30;;;;;;;;;6.25;5.50;;;;;19.52;100.00;100717.63;5094264;27;45640;-68
2021/07/30 05:35:56;;;;;;;;;6.00;4.50;;;;;19.61;100.00;100727.78;5116581;27;45438;-68
2021/07/30 05:38:22;;;;;;;;;5.00;4.00;;;;;19.67;100.00;100729.22;5117744;27;45426;-67
2021/07/30 05:40:50;;;;;;;;;4.00;4.00;;;;;19.65;100.00;100717.88;5116653;27;46348;-67
2021/07/30 05:43:16;;;;;;;;;4.25;3.00;;;;;19.75;100.00;100735.00;5117329;27;45679;-69
2021/07/30 05:45:42;;;;;;;;;3.50;3.00;;;;;19.73;100.00;100732.44;5098923;27;45400;-68
2021/07/30 05:48:07;;;;;;;;;4.00;4.00;;;;;19.71;100.00;100723.72;5116530;27;45390;-70
2021/07/30 05:50:33;;;;;;;;;4.00;4.00;;;;;19.77;100.00;100723.38;5115443;27;46121;-69
2021/07/30 05:52:59;;;;;;;;;4.25;4.25;;;;;19.83;100.00;100727.50;5112595;27;45716;-69
2021/07/30 05:55:24;;;;;;;;;5.50;5.25;;;;;19.87;100.00;100726.41;5117295;27;45473;-68
2021/07/30 05:57:49;;;;;;;;;4.00;3.00;;;;;19.78;100.00;100698.59;5117402;27;45423;-68
2021/07/30 06:00:15;;;;;;;;;2.75;2.00;;;;;19.98;100.00;100716.09;5117422;27;45666;-71
2021/07/30 06:02:40;;;;;;;;;7.25;6.00;;;;;19.88;100.00;100691.00;5116923;27;45484;-70
2021/07/30 06:05:06;;;;;;;;;5.25;5.25;;;;;20.07;100.00;100712.09;5117251;27;45471;-70
2021/07/30 06:07:33;;;;;;;;;4.00;4.00;;;;;20.07;100.00;100701.47;5116131;27;45475;-71
2021/07/30 06:09:58;;;;;;;;;6.75;5.25;;;;;20.11;100.00;100703.03;5112672;27;46552;-71
2021/07/30 06:12:23;;;;;;;;;7.00;5.50;;;;;20.14;100.00;100703.75;5116349;27;45244;-70
2021/07/30 06:14:49;;;;;;;;;5.00;5.00;;;;;20.25;100.00;100703.13;5099151;27;45242;-70
2021/07/30 06:17:14;;;;;;;;;4.25;4.00;;;;;20.28;100.00;100691.50;5117654;27;45324;-71
2021/07/30 06:19:40;;;;;;;;;4.25;4.00;;;;;20.35;100.00;100687.56;5117279;27;45459;-69
2021/07/30 06:22:05;;;;;;;;;4.25;4.00;;;;;20.44;100.00;100689.75;5116612;27;45450;-70
2021/07/30 06:24:31;;;;;;;;;3.25;3.00;;;;;20.54;100.00;100693.59;5102831;27;45482;-71
2021/07/30 06:26:56;;;;;;;;;4.00;4.00;;;;;20.58;100.00;100691.59;5117429;27;45280;-70
2021/07/30 06:29:22;;;;;;;;;4.00;4.00;;;;;20.61;100.00;100691.47;5117005;27;46009;-71
2021/07/30 06:31:47;;;;;;;;;5.25;4.00;;;;;20.59;100.00;100680.91;5116933;27;45469;-71
2021/07/30 06:34:13;;;;;;;;;7.25;4.50;;;;;20.63;100.00;100693.09;5117114;27;45405;-69
2021/07/30 06:36:38;;;;;;;;;5.25;4.50;;;;;20.60;100.00;100677.34;5116806;27;45503;-70
2021/07/30 06:39:04;;;;;;;;;6.00;5.00;;;;;20.67;100.00;100680.50;5117084;27;46256;-70
2021/07/30 06:41:30;;;;;;;;;5.00;4.50;;;;;20.72;100.00;100686.38;5117377;27;46144;-69
2021/07/30 06:43:55;;;;;;;;;4.50;4.00;;;;;20.75;100.00;100684.41;5117272;27;45444;-69
2021/07/30 06:46:21;;;;;;;;;5.25;5.25;;;;;20.74;100.00;100674.72;5113773;27;45340;-70
2021/07/30 06:48:46;;;;;;;;;5.00;5.00;;;;;20.79;100.00;100669.16;5113767;27;45502;-69
2021/07/30 06:51:13;;;;;;;;;4.00;4.00;;;;;20.89;100.00;100674.81;5096761;27;45525;-68
2021/07/30 06:53:39;;;;;;;;;6.00;4.50;;;;;20.97;100.00;100683.16;5096803;27;45426;-69
2021/07/30 06:56:11;;;;;;;;;6.00;5.25;;;;;20.99;100.00;100676.81;5110949;27;45388;-69
2021/07/30 06:58:37;;;;;;;;;6.75;5.50;;;;;21.06;100.00;100674.69;5106645;27;47003;-68
2021/07/30 07:01:03;;;;;;;;;6.25;6.00;;;;;21.09;100.00;100670.03;5117059;27;45407;-69
2021/07/30 07:03:29;;;;;;;;;4.50;4.50;;;;;20.95;100.00;100639.94;5111939;27;45371;-69
2021/07/30 07:05:54;;;;;;;;;5.00;5.00;;;;;21.15;100.00;100660.00;5107387;27;45299;-69
2021/07/30 07:08:20;;;;;;;;;6.00;5.00;;;;;21.22;100.00;100664.00;5116228;27;45463;-69
2021/07/30 07:10:45;;;;;;;;;5.25;4.25;;;;;21.31;100.00;100674.97;5118703;27;45316;-69
2021/07/30 07:13:10;;;;;;;;;3.00;3.00;;;;;21.39;100.00;100687.78;5120446;27;45269;-68
2021/07/30 07:15:42;;;;;;;;;5.00;5.00;;;;;21.39;100.00;100667.38;5120946;27;45215;-70
2021/07/30 07:18:08;;;;;;;;;6.00;4.50;;;;;21.32;100.00;100647.47;5120161;27;47329;-68
2021/07/30 07:20:33;;;;;;;;;6.00;4.00;;;;;21.48;100.00;100660.66;5113067;27;45471;-69
2021/07/30 07:22:58;;;;;;;;;6.00;6.00;;;;;21.55;100.00;100669.97;5109042;27;45398;-70
2021/07/30 07:25:24;;;;;;;;;8.00;6.00;;;;;21.59;100.00;100676.81;5114335;27;45392;-70
2021/07/30 07:27:49;;;;;;;;;5.75;5.75;;;;;21.68;100.00;100688.66;5099403;27;47387;-70
2021/07/30 07:30:14;;;;;;;;;4.00;4.00;;;;;21.71;100.00;100676.03;5103783;27;45224;-69
2021/07/30 07:32:40;;;;;;;;;5.75;4.75;;;;;21.70;100.00;100682.28;5120112;27;45249;-69
2021/07/30 07:35:08;;;;;;;;;5.50;4.50;;;;;21.75;100.00;100681.19;5107191;27;45454;-70
2021/07/30 07:37:34;;;;;;;;;5.00;5.00;;;;;21.65;100.00;100662.28;5118948;27;45677;-69
2021/07/30 07:39:59;;;;;;;;;5.00;5.00;;;;;21.77;100.00;100672.16;5119986;27;45418;-69
2021/07/30 07:42:24;;;;;;;;;5.00;4.00;;;;;21.66;100.00;100662.19;5100945;27;45398;-69
2021/07/30 07:44:50;;;;;;;;;5.00;4.00;;;;;21.88;100.00;100674.13;5101813;27;45336;-68
2021/07/30 07:47:16;;;;;;;;;6.25;5.50;;;;;22.00;100.00;100670.72;5120001;27;46102;-69
2021/07/30 07:49:41;;;;;;;;;5.50;5.50;;;;;22.08;100.00;100673.78;5105635;27;45963;-68
2021/07/30 07:52:07;;;;;;;;;6.25;5.75;;;;;22.10;100.00;100661.25;5119476;27;45411;-69
2021/07/30 07:54:32;;;;;;;;;7.00;5.25;;;;;22.21;100.00;100660.56;5101341;27;45421;-69
2021/07/30 07:57:01;;;;;;;;;6.50;6.00;;;;;22.34;100.00;100657.97;5119419;27;46112;-68
2021/07/30 07:59:27;;;;;;;;;5.00;4.50;;;;;22.34;100.00;100650.84;5119584;27;45209;-69
2021/07/30 08:01:52;;;;;;;;;5.50;5.00;;;;;22.42;100.00;100648.56;5101264;27;45422;-69
2021/07/30 08:04:17;;;;;;;;;5.50;5.00;;;;;22.46;100.00;100649.19;5119234;27;45352;-68
2021/07/30 08:06:43;;;;;;;;;7.00;6.25;;;;;22.48;100.00;100640.16;5100851;27;47888;-66
2021/07/30 08:09:08;;;;;;;;;5.75;5.75;;;;;22.49;100.00;100638.34;5101016;27;45262;-68
2021/07/30 08:11:35;;;;;;;;;5.00;5.00;;;;;22.50;100.00;100646.22;5118251;27;45787;-67
2021/07/30 08:14:00;;;;;;;;;5.00;5.00;;;;;22.54;100.00;100637.09;5109716;27;45470;-68
2021/07/30 08:16:26;;;;;;;;;4.00;4.00;;;;;22.70;100.00;100647.59;5105832;27;46274;-68
2021/07/30 08:18:52;;;;;;;;;4.00;3.50;;;;;22.83;100.00;100660.94;5098178;27;45265;-68
2021/07/30 08:21:17;;;;;;;;;4.25;3.50;;;;;22.85;100.00;100649.25;5097440;27;45700;-68
2021/07/30 08:23:42;;;;;;;;;3.50;3.25;;;;;22.94;100.00;100653.13;5100597;27;45573;-68
2021/07/30 08:26:08;;;;;;;;;4.75;4.00;;;;;23.06;100.00;100640.78;5100074;27;46613;-68
2021/07/30 08:28:33;;;;;;;;;3.25;3.25;;;;;23.13;100.00;100639.41;5103259;27;45315;-68
2021/07/30 08:30:59;;;;;;;;;3.00;2.50;;;;;23.09;100.00;100636.13;5098099;27;45531;-68
2021/07/30 08:33:24;;;;;;;;;4.25;3.50;;;;;23.03;100.00;100630.34;5111628;27;45388;-69
2021/07/30 08:35:49;;;;;;;;;3.25;3.25;;;;;23.09;100.00;100633.47;5113553;27;45546;-68
2021/07/30 08:38:15;;;;;;;;;4.00;3.50;;;;;23.07;100.00;100647.81;5107668;27;45291;-69
2021/07/30 08:40:41;;;;;;;;;4.75;4.25;;;;;22.97;100.00;100636.09;5097057;27;45357;-67
2021/07/30 08:43:13;;;;;;;;;3.75;3.25;;;;;22.92;100.00;100642.56;5109965;27;45277;-68
2021/07/30 08:45:38;;;;;;;;;1.75;1.50;;;;;22.88;100.00;100635.75;5104458;27;46623;-68
2021/07/30 08:48:07;;;;;;;;;4.25;3.00;;;;;22.72;100.00;100621.72;5118137;27;45322;-68
2021/07/30 08:50:33;;;;;;;;;3.00;3.00;;;;;22.83;100.00;100637.84;5118716;27;45300;-69
2021/07/30 08:53:03;;;;;;;;;1.75;1.50;;;;;22.86;100.00;100629.69;5102086;27;45307;-68
2021/07/30 08:55:30;;;;;;;;;1.50;1.50;;;;;22.90;100.00;100636.50;5097954;27;45414;-70
2021/07/30 08:57:55;;;;;;;;;4.00;4.00;;;;;22.82;100.00;100636.13;5115776;27;45598;-68
2021/07/30 09:00:21;;;;;;;;;4.00;3.25;;;;;22.83;100.00;100629.00;5098065;27;45382;-69
2021/07/30 09:02:47;;;;;;;;;3.00;2.25;;;;;22.87;100.00;100625.22;5111049;27;45334;-69
2021/07/30 09:05:35;;;;;;;;;2.00;2.00;;;;;22.83;100.00;100629.84;5098631;27;45696;-68
2021/07/30 09:08:06;;;;;;;;;2.50;2.00;;;;;22.85;100.00;100622.63;5111862;27;45415;-70
2021/07/30 09:10:36;;;;;;;;;2.00;2.00;;;;;22.86;100.00;100620.84;5104676;27;45272;-68
2021/07/30 09:13:16;;;;;;;;;3.50;3.25;;;;;22.99;100.00;100629.69;5118531;27;45367;-69
2021/07/30 09:15:44;;;;;;;;;4.00;3.00;;;;;23.06;100.00;100612.31;5104816;27;46254;-68
2021/07/30 09:18:57;;;;;;;;;3.25;3.00;;;;;23.25;100.00;100635.91;5117496;27;45810;-69
2021/07/30 09:21:30;;;;;;;;;2.00;1.75;;;;;23.39;100.00;100616.31;5066652;28;45325;-68
2021/07/30 09:24:04;;;;;;;;;3.75;3.50;;;;;23.53;100.00;100618.84;5058071;28;45577;-69
2021/07/30 09:26:44;;;;;;;;;2.50;2.50;;;;;23.58;100.00;100621.25;5074572;27;46131;-68
2021/07/30 09:29:10;;;;;;;;;2.75;2.00;;;;;23.57;100.00;100617.72;5073799;28;45780;-68
2021/07/30 09:31:38;;;;;;;;;1.75;1.75;;;;;23.53;100.00;100624.16;5074655;28;45617;-68
2021/07/30 09:34:25;;;;;;;;;3.00;2.50;;;;;23.53;100.00;100606.38;5074350;28;45500;-69
2021/07/30 09:36:55;;;;;;;;;4.00;4.00;;;;;23.52;100.00;100618.00;5074540;28;45435;-68
2021/07/30 09:39:33;;;;;;;;;4.25;4.00;;;;;23.40;100.00;100615.34;5073892;28;46046;-69
2021/07/30 09:42:07;;;;;;;;;2.75;2.00;;;;;23.27;100.00;100622.47;5074839;28;45477;-68
2021/07/30 09:44:41;;;;;;;;;3.75;2.75;;;;;23.10;100.00;100631.63;5074263;28;45466;-69
2021/07/30 09:47:15;;;;;;;;;3.25;2.75;;;;;23.00;100.00;100619.88;5074528;28;46239;-68
2021/07/30 09:50:04;;;;;;;;;2.75;1.75;;;;;23.03;100.00;100627.66;5074137;28;45569;-68
2021/07/30 09:52:36;;;;;;;;;3.75;3.00;;;;;22.98;100.00;100625.31;5074447;28;45435;-68
2021/07/30 09:55:12;;;;;;;;;3.00;3.00;;;;;22.94;100.00;100629.16;5073829;28;45918;-69
2021/07/30 09:57:42;;;;;;;;;3.00;3.00;;;;;22.96;100.00;100629.91;5083599;27;46100;-68
2021/07/30 10:00:09;;;;;;;;;3.00;2.00;;;;;23.01;100.00;100630.44;5082271;27;45294;-69
2021/07/30 10:02:36;;;;;;;;;3.25;3.00;;;;;22.92;100.00;100612.44;5085295;27;45442;-68
2021/07/30 10:05:03;;;;;;;;;3.00;2.50;;;;;22.97;100.00;100630.75;5087522;27;45556;-68
2021/07/30 10:07:30;;;;;;;;;2.00;2.00;;;;;23.05;100.00;100620.44;5076324;27;46541;-69
2021/07/30 10:10:07;;;;;;;;;4.00;2.75;;;;;23.14;100.00;100625.16;5077770;27;45270;-68
2021/07/30 10:12:35;;;;;;;;;2.00;1.25;;;;;24.35;100.00;100614.78;5095234;27;45218;-68
2021/07/30 10:15:01;;;;;;;;;2.50;2.25;;;;;25.43;100.00;100608.38;5086496;27;45724;-68
2021/07/30 10:17:32;;;;;;;;;3.00;2.75;;;;;25.95;100.00;100622.00;5076264;27;46184;-68
2021/07/30 10:20:09;;;;;;;;;5.00;3.00;;;;;25.54;100.00;100616.38;5090646;27;45331;-68
2021/07/30 10:22:41;;;;;;;;;0.00;0.00;;;;;25.69;100.00;100625.06;5084411;27;45618;-67
2021/07/30 10:25:09;;;;;;;;;4.00;3.00;;;;;25.54;100.00;100613.69;5083637;27;45327;-68
2021/07/30 10:27:41;;;;;;;;;3.00;3.00;;;;;25.19;100.00;100608.44;5075562;27;46737;-68
2021/07/30 10:30:09;;;;;;;;;2.00;2.00;;;;;25.33;100.00;100601.03;5075928;27;45286;-69
2021/07/30 10:32:41;;;;;;;;;3.00;2.00;;;;;26.00;100.00;100602.88;5076371;27;45506;-69
2021/07/30 10:35:06;;;;;;;;;5.00;3.00;;;;;26.34;100.00;100605.50;5075291;27;46298;-68
2021/07/30 10:37:36;;;;;;;;;2.00;2.00;;;;;26.18;100.00;100590.69;5089686;27;45364;-68
2021/07/30 10:40:12;;;;;;;;;4.25;3.75;;;;;25.82;100.00;100602.56;5075960;27;45446;-69
2021/07/30 10:43:15;;;;;;;;;3.00;3.00;;;;;25.55;100.00;100602.03;5080833;27;46103;-68
2021/07/30 10:46:11;;;;;;;;;1.00;1.00;;;;;25.67;100.00;100609.13;5094085;27;45562;-68
2021/07/30 10:48:38;;;;;;;;;2.00;2.00;;;;;27.95;100.00;100566.63;5099360;27;46778;-68
2021/07/30 10:51:31;;;;;;;;;2.00;2.00;;;;;30.36;100.00;100592.19;5099315;27;45454;-68
2021/07/30 10:54:03;;;;;;;;;2.00;1.00;;;;;31.14;100.00;100593.19;5006939;28;45431;-68
2021/07/30 10:56:28;;;;;;;;;1.75;0.50;;;;;30.47;100.00;100600.88;5017035;28;45570;-68
2021/07/30 10:58:54;;;;;;;;;0.75;0.75;;;;;29.96;100.00;100595.25;5016350;28;46094;-67
2021/07/30 11:01:20;;;;;;;;;0.50;0.25;;;;;30.17;99.95;100604.78;5003204;28;46773;-68
2021/07/30 11:04:07;;;;;;;;;1.75;0.75;;;;;30.93;88.57;100600.81;5016975;28;45479;-68
2021/07/30 11:06:41;;;;;;;;;0.25;0.25;;;;;32.08;81.52;100600.47;5016594;28;45529;-66
2021/07/30 11:09:06;;;;;;;;;0.00;0.00;;;;;32.24;78.20;100603.22;5016481;28;47462;-67
2021/07/30 11:11:35;;;;;;;;;0.50;0.00;;;;;31.64;80.39;100604.16;5016283;28;45539;-67
2021/07/30 11:14:05;;;;;;;;;2.00;2.00;;;;;30.88;80.87;100608.53;5016275;28;45378;-67
2021/07/30 11:16:30;;;;;;;;;0.25;0.25;;;;;30.41;78.16;100623.06;5016850;28;45470;-68
2021/07/30 11:18:57;;;;;;;;;0.00;0.00;;;;;30.18;79.54;100617.25;5016011;28;47473;-67
2021/07/30 11:21:26;;;;;;;;;1.25;1.25;;;;;30.71;79.59;100621.00;5016256;28;46014;-68